Time;durP1;ratioP1;P1;durP2;ratioP2;P2;SDS_P1;SDS_P2;PMS_P1;PMS_P2;Temp;Humidity;BMP_temperature;BMP_pressure;BME280_temperature;BME280_humidity;BME280_pressure;Samples;Min_cycle;Max_cycle;Signal;HPM_P1;HPM_P2
2022/05/25 00:01:39;;;;;;;4.53;1.30;;;12.60;99.90;;;;;;4915886;29;20028;-77
2022/05/25 00:04:06;;;;;;;10.70;1.40;;;12.80;99.90;;;;;;4915629;29;20484;-77
2022/05/25 00:06:32;;;;;;;3.15;1.10;;;12.80;99.90;;;;;;4916022;29;20059;-77
2022/05/25 00:08:57;;;;;;;5.18;1.25;;;12.70;99.90;;;;;;4913026;29;20084;-77
2022/05/25 00:11:23;;;;;;;4.80;1.20;;;12.80;99.90;;;;;;4897010;29;20032;-77
2022/05/25 00:13:49;;;;;;;8.32;1.63;;;12.80;99.90;;;;;;4900111;29;20055;-76
2022/05/25 00:16:15;;;;;;;4.05;1.42;;;12.60;99.90;;;;;;4914550;29;20059;-77
2022/05/25 00:21:25;;;;;;;6.90;1.10;;;12.70;99.90;;;;;;4916001;29;20035;-77
2022/05/25 00:23:51;;;;;;;5.32;1.40;;;12.70;99.90;;;;;;4930314;29;20029;-77
2022/05/25 00:26:16;;;;;;;4.80;1.55;;;12.80;99.90;;;;;;4915673;29;20064;-77
2022/05/25 00:28:42;;;;;;;3.92;1.30;;;12.80;99.90;;;;;;4915700;29;20028;-77
2022/05/25 00:31:08;;;;;;;5.28;1.13;;;12.80;99.90;;;;;;4915185;29;20068;-77
2022/05/25 00:33:34;;;;;;;7.80;1.75;;;12.80;99.90;;;;;;4915645;29;20484;-76
2022/05/25 00:36:00;;;;;;;8.18;1.35;;;12.80;99.90;;;;;;4915345;29;20396;-77
2022/05/25 00:38:26;;;;;;;8.10;1.48;;;12.70;99.90;;;;;;4915039;29;20138;-77
2022/05/25 00:40:52;;;;;;;3.03;0.95;;;12.80;99.90;;;;;;4915416;29;20442;-77
2022/05/25 00:43:18;;;;;;;3.83;1.20;;;12.80;99.90;;;;;;4915588;29;20032;-77
2022/05/25 00:45:58;;;;;;;6.47;1.20;;;12.80;99.90;;;;;;4933754;29;20494;-77
2022/05/25 00:48:53;;;;;;;10.90;1.30;;;12.80;99.90;;;;;;4934072;29;20391;-77
2022/05/25 00:51:25;;;;;;;8.18;1.30;;;12.80;99.90;;;;;;4919225;29;20088;-77
2022/05/25 00:54:04;;;;;;;6.40;1.40;;;12.80;99.90;;;;;;4933380;29;20460;-77
2022/05/25 00:56:32;;;;;;;5.15;1.35;;;12.80;99.90;;;;;;4919138;29;20476;-76
2022/05/25 00:59:08;;;;;;;4.28;1.00;;;12.90;99.90;;;;;;4919376;29;20043;-76
2022/05/25 01:01:33;;;;;;;3.10;1.33;;;12.80;99.90;;;;;;4918907;29;20095;-76
2022/05/25 01:03:59;;;;;;;5.50;1.30;;;12.80;99.90;;;;;;4918367;29;20461;-77
2022/05/25 01:06:45;;;;;;;3.95;1.30;;;12.70;99.90;;;;;;4919267;29;20432;-77
2022/05/25 01:09:29;;;;;;;3.78;1.33;;;12.80;99.90;;;;;;4933172;29;20032;-77
2022/05/25 01:12:23;;;;;;;6.43;1.40;;;12.80;99.90;;;;;;4919112;29;20066;-76
2022/05/25 01:15:24;;;;;;;6.80;1.55;;;12.80;99.90;;;;;;4918741;29;20035;-77
2022/05/25 01:17:59;;;;;;;2.78;1.10;;;12.80;99.90;;;;;;4860478;29;20057;-77
2022/05/25 01:20:30;;;;;;;13.00;1.63;;;12.80;99.90;;;;;;4859935;29;20030;-77
2022/05/25 01:23:17;;;;;;;4.80;1.38;;;12.80;99.90;;;;;;4859868;29;20037;-77
2022/05/25 01:25:51;;;;;;;5.10;1.02;;;12.90;99.90;;;;;;4860278;29;20518;-77
2022/05/25 01:29:01;;;;;;;6.25;1.50;;;12.90;99.90;;;;;;4857066;29;20118;-77
2022/05/25 01:31:55;;;;;;;5.10;1.10;;;12.90;99.90;;;;;;4839167;29;20060;-76
2022/05/25 01:34:39;;;;;;;7.38;1.60;;;12.90;99.90;;;;;;4854027;29;20033;-77
2022/05/25 01:37:16;;;;;;;9.60;1.55;;;12.90;99.90;;;;;;4860411;29;20092;-76
2022/05/25 01:39:52;;;;;;;6.82;1.60;;;12.90;99.90;;;;;;4860586;29;20056;-77
2022/05/25 01:42:39;;;;;;;6.65;2.33;;;12.90;99.90;;;;;;4859296;29;20109;-76
2022/05/25 01:45:08;;;;;;;7.00;1.98;;;12.90;99.90;;;;;;4860117;29;20162;-77
2022/05/25 01:47:37;;;;;;;6.18;1.83;;;12.90;99.90;;;;;;4859759;29;20030;-77
2022/05/25 01:50:32;;;;;;;8.05;1.30;;;12.90;99.90;;;;;;4859845;29;20026;-77
2022/05/25 01:53:01;;;;;;;5.80;1.15;;;13.00;99.90;;;;;;4916251;29;20491;-77
2022/05/25 01:55:33;;;;;;;9.50;1.77;;;12.90;99.90;;;;;;4916784;29;20036;-77
2022/05/25 01:58:07;;;;;;;4.53;1.63;;;12.90;99.90;;;;;;4917784;29;20024;-77
2022/05/25 02:00:40;;;;;;;5.13;1.67;;;12.90;99.90;;;;;;4917652;29;20080;-77
2022/05/25 02:06:01;;;;;;;5.45;1.40;;;12.90;99.90;;;;;;4917832;29;20050;-77
2022/05/25 02:08:55;;;;;;;8.35;1.45;;;12.90;99.90;;;;;;4932717;29;20067;-77
2022/05/25 02:11:35;;;;;;;4.13;1.85;;;12.80;99.90;;;;;;4902402;29;20033;-76
2022/05/25 02:14:06;;;;;;;5.28;1.73;;;12.90;99.90;;;;;;4917113;29;20063;-77
2022/05/25 02:17:02;;;;;;;4.30;1.58;;;12.90;99.90;;;;;;4932011;29;20033;-78
2022/05/25 02:19:37;;;;;;;7.05;2.05;;;12.90;99.90;;;;;;4917600;29;20036;-77
2022/05/25 02:22:24;;;;;;;10.50;1.88;;;12.90;99.90;;;;;;4917464;29;20024;-78
2022/05/25 02:25:18;;;;;;;11.82;1.83;;;12.90;99.90;;;;;;4916558;29;20028;-77
2022/05/25 02:28:01;;;;;;;8.18;1.55;;;12.90;99.90;;;;;;4877505;29;20044;-77
2022/05/25 02:30:31;;;;;;;6.38;1.63;;;12.90;99.90;;;;;;4877871;29;20041;-77
2022/05/25 02:33:13;;;;;;;8.38;1.90;;;12.90;99.90;;;;;;4877547;29;20043;-77
2022/05/25 02:35:40;;;;;;;;;;;12.80;99.90;;;;;;4878257;29;20036;-77
2022/05/25 02:38:08;;;;;;;4.90;1.35;;;12.90;99.90;;;;;;4877173;29;19928;-77
2022/05/25 02:40:35;;;;;;;6.63;1.30;;;12.90;99.90;;;;;;4877868;29;20072;-76
2022/05/25 02:43:02;;;;;;;5.78;1.40;;;12.90;99.90;;;;;;4861535;29;20029;-77
2022/05/25 02:45:28;;;;;;;5.32;1.40;;;12.80;99.90;;;;;;4876915;29;20441;-77
2022/05/25 02:47:54;;;;;;;6.75;1.48;;;12.90;99.90;;;;;;4877607;29;20052;-77
2022/05/25 02:50:21;;;;;;;7.60;1.52;;;12.90;99.90;;;;;;4861650;29;20029;-77
2022/05/25 02:52:47;;;;;;;6.47;1.35;;;12.90;99.90;;;;;;4893322;29;20044;-77
2022/05/25 02:55:13;;;;;;;10.43;1.40;;;12.80;99.90;;;;;;4895720;29;20033;-77
2022/05/25 02:57:39;;;;;;;5.32;1.13;;;12.90;99.90;;;;;;4895945;29;20045;-77
2022/05/25 03:00:07;;;;;;;7.32;1.58;;;12.90;99.90;;;;;;4895530;29;20029;-77
2022/05/25 03:02:33;;;;;;;9.65;1.23;;;12.80;99.90;;;;;;4895968;29;20028;-77
2022/05/25 03:04:59;;;;;;;6.47;1.40;;;12.80;99.90;;;;;;4908430;29;20404;-77
2022/05/25 03:07:25;;;;;;;5.25;1.40;;;12.80;99.90;;;;;;4916921;29;20032;-77
2022/05/25 03:09:51;;;;;;;4.82;1.20;;;12.80;99.90;;;;;;4916706;29;20024;-77
2022/05/25 03:12:16;;;;;;;9.65;1.38;;;12.80;99.90;;;;;;4916462;29;20035;-77
2022/05/25 03:14:43;;;;;;;10.18;1.27;;;12.80;99.90;;;;;;4916652;29;20048;-77
2022/05/25 03:17:14;;;;;;;5.00;1.00;;;12.90;99.90;;;;;;4916713;29;20028;-77
2022/05/25 03:19:49;;;;;;;10.70;1.30;;;12.80;99.90;;;;;;4916495;29;20021;-76
2022/05/25 03:22:15;;;;;;;4.32;1.25;;;12.80;99.90;;;;;;4916295;29;20264;-76
2022/05/25 03:24:41;;;;;;;8.77;1.10;;;12.80;99.90;;;;;;4916582;29;20502;-78
2022/05/25 03:27:06;;;;;;;3.03;1.33;;;12.80;99.90;;;;;;4916205;29;20102;-77
2022/05/25 03:29:32;;;;;;;4.65;0.80;;;12.80;99.90;;;;;;4916509;29;20511;-77
2022/05/25 03:31:59;;;;;;;2.40;0.90;;;12.80;99.90;;;;;;4916199;29;20034;-77
2022/05/25 03:34:25;;;;;;;8.55;1.60;;;12.80;99.90;;;;;;4916265;29;20036;-77
2022/05/25 03:36:54;;;;;;;3.47;1.17;;;12.80;99.90;;;;;;4915993;29;20096;-77
2022/05/25 03:39:22;;;;;;;9.10;1.30;;;12.80;99.90;;;;;;4915456;29;20107;-77
2022/05/25 03:41:52;;;;;;;6.55;1.35;;;12.80;99.90;;;;;;4915498;29;20547;-76
2022/05/25 03:44:19;;;;;;;12.25;1.67;;;12.80;99.90;;;;;;4916151;29;20032;-77
2022/05/25 03:46:45;;;;;;;4.75;1.63;;;12.80;99.90;;;;;;4916142;29;20024;-77
2022/05/25 03:49:11;;;;;;;9.98;1.65;;;12.70;99.90;;;;;;4916275;29;20043;-77
2022/05/25 03:51:37;;;;;;;6.40;1.17;;;12.70;99.90;;;;;;4922335;29;20035;-77
2022/05/25 03:54:03;;;;;;;11.40;1.63;;;12.70;99.90;;;;;;4897134;29;20032;-77
2022/05/25 03:56:28;;;;;;;5.75;1.40;;;12.70;99.90;;;;;;4896497;29;20513;-77
2022/05/25 03:58:54;;;;;;;5.75;1.05;;;12.70;99.90;;;;;;4897083;29;20068;-77
2022/05/25 04:01:20;;;;;;;4.05;0.90;;;12.70;99.90;;;;;;4915450;29;20047;-77
2022/05/25 04:03:45;;;;;;;6.43;1.30;;;12.60;99.90;;;;;;4930651;29;20389;-77
2022/05/25 04:06:11;;;;;;;2.45;0.90;;;12.60;99.90;;;;;;4915791;29;20039;-77
2022/05/25 04:08:37;;;;;;;7.97;1.17;;;12.70;99.90;;;;;;4915875;29;20518;-78
2022/05/25 04:11:02;;;;;;;6.72;1.40;;;12.70;99.90;;;;;;4930162;29;20107;-77
2022/05/25 04:13:28;;;;;;;3.80;0.90;;;12.60;99.90;;;;;;4915787;29;20446;-76
2022/05/25 04:15:54;;;;;;;5.97;0.90;;;12.60;99.90;;;;;;4914985;29;20036;-80
2022/05/25 04:18:19;;;;;;;4.75;1.55;;;12.60;99.90;;;;;;4915400;29;20028;-78
2022/05/25 04:20:45;;;;;;;8.27;1.23;;;12.60;99.90;;;;;;4915732;29;20031;-77
2022/05/25 04:23:11;;;;;;;7.65;1.30;;;12.60;99.90;;;;;;4915063;29;20055;-78
2022/05/25 04:25:39;;;;;;;11.48;1.60;;;12.60;99.90;;;;;;4915175;29;20021;-77
2022/05/25 04:28:05;;;;;;;4.63;1.42;;;12.60;99.90;;;;;;4930024;29;20040;-77
2022/05/25 04:30:30;;;;;;;5.78;1.70;;;12.50;99.90;;;;;;4915718;29;20036;-77
2022/05/25 04:32:56;;;;;;;7.15;1.30;;;12.50;99.90;;;;;;4915791;29;20036;-77
2022/05/25 04:35:23;;;;;;;7.18;1.42;;;12.50;99.90;;;;;;4915198;29;20024;-77
2022/05/25 04:37:49;;;;;;;5.75;1.55;;;12.50;99.90;;;;;;4915338;29;20092;-77
2022/05/25 04:40:21;;;;;;;7.05;1.40;;;12.50;99.90;;;;;;4914950;29;20119;-77
2022/05/25 04:42:47;;;;;;;8.48;1.30;;;12.50;99.90;;;;;;4911361;29;20484;-77
2022/05/25 04:45:13;;;;;;;11.15;1.33;;;12.60;99.90;;;;;;4896485;29;20028;-77
2022/05/25 04:47:40;;;;;;;6.45;1.13;;;12.50;99.90;;;;;;4914857;29;20126;-77
2022/05/25 04:50:08;;;;;;;9.13;1.70;;;12.50;99.90;;;;;;4909559;29;20028;-76
2022/05/25 04:52:35;;;;;;;4.10;1.30;;;12.50;99.90;;;;;;4905787;29;20025;-77
2022/05/25 04:55:01;;;;;;;6.93;1.10;;;12.50;99.90;;;;;;4908130;29;20051;-77
2022/05/25 04:57:27;;;;;;;7.40;1.20;;;12.50;99.90;;;;;;4913211;29;20032;-77
2022/05/25 04:59:59;;;;;;;5.07;1.15;;;12.50;99.90;;;;;;4904021;29;20028;-76
2022/05/25 05:02:26;;;;;;;9.23;1.48;;;12.50;99.90;;;;;;4904604;29;20680;-76
2022/05/25 05:04:52;;;;;;;3.55;1.05;;;12.50;99.90;;;;;;4907038;29;20497;-76
2022/05/25 05:07:26;;;;;;;5.32;1.02;;;12.60;99.90;;;;;;4905920;29;20060;-76
2022/05/25 05:09:51;;;;;;;7.57;1.58;;;12.60;99.90;;;;;;4902726;29;20028;-76
2022/05/25 05:12:17;;;;;;;6.50;1.20;;;12.50;99.90;;;;;;4914795;29;20024;-76
2022/05/25 05:14:44;;;;;;;11.15;1.50;;;12.50;99.90;;;;;;4910195;29;20036;-76
2022/05/25 05:17:10;;;;;;;12.60;1.55;;;12.60;99.90;;;;;;4903807;29;20036;-76
2022/05/25 05:19:36;;;;;;;10.80;1.55;;;12.60;99.90;;;;;;4904249;29;20020;-76
2022/05/25 05:22:02;;;;;;;7.28;1.27;;;12.50;99.90;;;;;;4909229;29;20076;-77
2022/05/25 05:24:31;;;;;;;6.13;1.20;;;12.50;99.90;;;;;;4914788;29;20117;-77
2022/05/25 05:26:57;;;;;;;14.02;2.10;;;12.40;99.90;;;;;;4909340;29;20083;-77
2022/05/25 05:29:24;;;;;;;4.70;1.08;;;12.50;99.90;;;;;;4906528;29;20369;-77
2022/05/25 05:31:51;;;;;;;12.15;1.58;;;12.50;99.90;;;;;;4902114;29;20377;-77
2022/05/25 05:34:17;;;;;;;8.52;1.60;;;12.40;99.90;;;;;;4911110;29;20027;-76
2022/05/25 05:36:55;;;;;;;5.90;1.88;;;12.40;99.90;;;;;;4908709;29;20111;-78
2022/05/25 05:39:24;;;;;;;11.82;1.70;;;12.50;99.90;;;;;;4911124;29;20040;-77
2022/05/25 05:41:56;;;;;;;6.45;1.65;;;12.40;99.90;;;;;;4921233;29;20036;-76
2022/05/25 05:44:25;;;;;;;10.80;2.05;;;12.40;99.90;;;;;;4900943;29;20020;-78
2022/05/25 05:46:53;;;;;;;8.20;1.60;;;12.40;99.90;;;;;;4900450;29;20063;-76
2022/05/25 05:49:19;;;;;;;8.25;1.33;;;12.30;99.90;;;;;;4899639;29;20028;-76
2022/05/25 05:51:45;;;;;;;8.25;1.30;;;12.40;99.90;;;;;;4898942;29;20477;-79
2022/05/25 05:54:12;;;;;;;6.18;1.85;;;12.40;99.90;;;;;;4914819;29;20070;-77
2022/05/25 05:56:37;;;;;;;10.23;1.48;;;12.50;99.90;;;;;;4917774;29;20036;-77
2022/05/25 05:59:03;;;;;;;10.80;1.92;;;12.60;99.90;;;;;;4918311;29;20095;-77
2022/05/25 06:01:29;;;;;;;8.13;1.17;;;12.60;99.90;;;;;;4919169;29;20040;-77
2022/05/25 07:12:26;;;;;;;6.85;1.23;;;14.00;99.90;;;;;;5556035;23;20135;-76
2022/05/25 07:14:52;;;;;;;5.80;1.23;;;14.10;99.90;;;;;;4925762;29;20028;-77
2022/05/25 07:17:17;;;;;;;5.85;1.30;;;13.90;99.90;;;;;;4918656;29;20047;-75
2022/05/25 07:19:43;;;;;;;7.18;2.35;;;14.00;99.90;;;;;;4915503;29;20024;-76
2022/05/25 07:22:10;;;;;;;3.63;1.10;;;14.00;99.90;;;;;;4917546;29;20053;-77
2022/05/25 07:24:36;;;;;;;5.35;1.58;;;14.10;99.90;;;;;;4916671;29;20107;-77
2022/05/25 07:27:03;;;;;;;7.70;1.10;;;14.10;99.90;;;;;;4917302;29;20601;-77
2022/05/25 07:29:29;;;;;;;7.57;0.85;;;14.10;99.90;;;;;;4915988;29;20075;-77
2022/05/25 07:32:01;;;;;;;5.80;1.05;;;14.20;99.90;;;;;;4917326;29;20056;-78
2022/05/25 07:34:30;;;;;;;7.78;1.25;;;14.20;99.90;;;;;;4916751;29;20028;-78
2022/05/25 07:36:59;;;;;;;5.00;1.40;;;14.10;99.90;;;;;;4916836;29;20051;-78
2022/05/25 07:39:32;;;;;;;6.30;1.60;;;14.00;99.90;;;;;;4916509;29;20024;-78
2022/05/25 07:42:00;;;;;;;4.63;1.00;;;14.10;99.90;;;;;;4916296;29;20563;-76
2022/05/25 07:44:49;;;;;;;13.98;1.27;;;14.40;99.90;;;;;;4915951;29;20032;-76
2022/05/25 07:47:14;;;;;;;7.00;1.20;;;14.60;99.90;;;;;;4912632;29;20131;-76
2022/05/25 07:49:40;;;;;;;5.60;1.30;;;14.60;99.90;;;;;;4914457;29;20141;-76
2022/05/25 07:52:06;;;;;;;5.70;1.13;;;14.60;99.90;;;;;;4915922;29;20039;-77
2022/05/25 07:54:33;;;;;;;7.95;1.08;;;14.70;99.90;;;;;;4914410;29;20026;-76
2022/05/25 07:56:59;;;;;;;9.55;1.48;;;14.60;99.90;;;;;;4914880;29;20032;-77
2022/05/25 07:59:25;;;;;;;4.53;0.90;;;14.80;99.90;;;;;;4915278;29;20031;-77
2022/05/25 08:07:31;;;;;;;7.40;1.15;;;15.10;99.90;;;;;;4911179;29;20059;-76
2022/05/25 08:10:03;;;;;;;5.13;1.13;;;15.40;99.90;;;;;;4915993;29;20489;-77
2022/05/25 08:12:30;;;;;;;;;;;15.20;99.90;;;;;;4908173;29;20059;-77
2022/05/25 08:14:56;;;;;;;7.05;1.30;;;15.20;99.90;;;;;;4897468;29;19911;-77
2022/05/25 08:17:21;;;;;;;3.63;1.17;;;15.80;99.90;;;;;;4896767;29;20105;-77
2022/05/25 08:19:47;;;;;;;4.28;1.15;;;16.00;99.90;;;;;;4895887;29;20112;-78
2022/05/25 08:22:13;;;;;;;5.68;1.65;;;15.90;99.90;;;;;;4898204;29;20084;-77
2022/05/25 08:24:38;;;;;;;9.98;1.30;;;16.20;99.90;;;;;;4900811;29;20476;-78
2022/05/25 08:27:05;;;;;;;8.80;1.40;;;16.10;99.90;;;;;;4898293;29;20028;-77
2022/05/25 08:29:31;;;;;;;5.75;0.90;;;16.70;99.90;;;;;;4902651;29;20111;-78
2022/05/25 08:31:57;;;;;;;5.68;1.13;;;17.00;99.90;;;;;;4901470;29;20115;-76
2022/05/25 08:34:25;;;;;;;4.65;1.35;;;17.20;99.90;;;;;;4905960;29;20536;-76
2022/05/25 08:36:51;;;;;;;6.68;1.05;;;16.80;99.20;;;;;;4896855;29;20028;-77
2022/05/25 08:39:17;;;;;;;4.22;1.13;;;16.90;98.80;;;;;;4904526;29;20024;-78
2022/05/25 08:41:44;;;;;;;3.05;0.95;;;17.50;98.30;;;;;;4897427;29;20017;-77
2022/05/25 08:44:11;;;;;;;3.90;0.90;;;17.40;96.80;;;;;;4908995;29;20024;-77
2022/05/25 08:46:38;;;;;;;5.63;0.93;;;17.30;96.70;;;;;;4902637;29;20555;-78
2022/05/25 08:49:13;;;;;;;3.15;0.90;;;17.50;96.30;;;;;;4901785;29;20024;-78
2022/05/25 08:51:49;;;;;;;5.25;1.20;;;17.30;96.00;;;;;;4900959;29;20024;-76
2022/05/25 08:54:17;;;;;;;3.85;0.88;;;18.20;95.60;;;;;;4906079;29;20103;-78
2022/05/25 08:56:47;;;;;;;10.27;1.15;;;18.60;94.60;;;;;;4901168;29;20481;-76
2022/05/25 08:59:21;;;;;;;4.15;1.10;;;17.60;94.60;;;;;;4902611;29;20061;-77
2022/05/25 09:02:00;;;;;;;7.15;1.15;;;17.50;95.10;;;;;;4901006;29;20056;-76
2022/05/25 09:44:29;;;;;;;2.63;0.85;;;18.10;92.50;;;;;;5574471;23;19986;-78
2022/05/25 09:46:58;;;;;;;5.15;0.93;;;19.40;89.30;;;;;;4919929;29;20055;-75
2022/05/25 09:49:47;;;;;;;5.15;0.60;;;20.30;87.90;;;;;;4918983;29;20024;-78
2022/05/25 09:52:42;;;;;;;5.13;0.90;;;20.60;85.70;;;;;;4931043;29;20103;-77
2022/05/25 09:55:18;;;;;;;5.93;0.80;;;18.90;84.70;;;;;;4935795;29;20032;-74
2022/05/25 09:57:56;;;;;;;3.72;0.70;;;18.80;86.20;;;;;;4932013;29;20494;-75
2022/05/25 10:00:37;;;;;;;4.63;1.08;;;20.00;83.60;;;;;;4902571;29;20024;-76
2022/05/25 10:03:08;;;;;;;4.72;1.33;;;20.70;80.30;;;;;;4918573;29;20459;-77
2022/05/25 10:05:52;;;;;;;3.03;1.10;;;20.20;83.70;;;;;;4931474;29;20031;-76
2022/05/25 10:08:30;;;;;;;3.97;0.98;;;19.00;84.50;;;;;;4922413;29;20051;-77
2022/05/25 10:11:00;;;;;;;4.30;0.82;;;18.50;86.30;;;;;;4918138;29;20115;-76
2022/05/25 10:13:29;;;;;;;5.35;1.08;;;18.00;85.00;;;;;;4918199;29;20140;-76
2022/05/25 10:15:56;;;;;;;4.60;1.10;;;17.70;86.70;;;;;;4918847;29;20115;-76
2022/05/25 10:18:40;;;;;;;6.15;1.10;;;17.60;89.30;;;;;;4924095;29;20100;-76
2022/05/25 10:21:13;;;;;;;6.40;1.20;;;18.60;88.20;;;;;;4912472;29;20020;-75
2022/05/25 10:23:43;;;;;;;5.15;1.00;;;19.80;84.80;;;;;;4921671;29;20099;-76
2022/05/25 10:26:19;;;;;;;2.90;0.90;;;20.50;79.70;;;;;;4918930;29;20414;-77
2022/05/25 10:28:55;;;;;;;4.70;0.90;;;20.30;80.30;;;;;;4914774;29;20032;-77
2022/05/25 10:37:08;;;;;;;6.70;1.35;;;19.50;79.70;;;;;;4919363;29;20039;-79
2022/05/25 10:39:40;;;;;;;4.13;0.90;;;18.90;82.10;;;;;;4922800;29;20031;-76
2022/05/25 10:42:26;;;;;;;7.43;0.85;;;18.50;82.60;;;;;;4917353;29;20071;-76
2022/05/25 10:45:34;;;;;;;3.88;1.10;;;18.10;83.80;;;;;;4902722;29;20041;-76
2022/05/25 10:48:08;;;;;;;4.75;1.23;;;18.30;83.60;;;;;;4898336;29;20109;-78
2022/05/25 10:50:43;;;;;;;3.28;0.90;;;19.50;82.10;;;;;;4900654;29;20040;-76
2022/05/25 10:53:18;;;;;;;8.15;1.10;;;20.20;79.70;;;;;;4900105;29;20025;-76
2022/05/25 10:56:16;;;;;;;5.63;1.17;;;20.70;78.30;;;;;;4896859;29;20046;-76
2022/05/25 10:58:57;;;;;;;12.32;1.23;;;21.10;75.70;;;;;;4897429;29;20033;-75
2022/05/25 11:01:57;;;;;;;7.40;1.20;;;20.10;75.80;;;;;;4896760;29;20016;-77
2022/05/25 11:04:37;;;;;;;4.43;1.13;;;19.40;80.30;;;;;;4896803;29;20683;-76
2022/05/25 11:14:50;;;;;;;6.05;1.10;;;17.70;80.00;;;;;;5128796;27;20108;-74
2022/05/25 11:17:24;;;;;;;3.15;0.95;;;17.80;80.90;;;;;;5114595;28;20024;-74
2022/05/25 11:19:59;;;;;;;6.97;1.05;;;17.60;81.00;;;;;;5105692;28;20102;-74
2022/05/25 11:22:49;;;;;;;4.25;1.15;;;17.70;81.60;;;;;;5104363;28;20399;-74
2022/05/25 11:25:35;;;;;;;4.35;1.10;;;17.80;82.00;;;;;;5110035;28;20023;-73
2022/05/25 11:28:15;;;;;;;2.50;0.80;;;17.80;82.60;;;;;;5108862;28;20031;-74
2022/05/25 11:31:06;;;;;;;3.40;1.00;;;18.00;82.80;;;;;;5109515;28;20023;-74
2022/05/25 11:34:03;;;;;;;3.90;1.20;;;18.20;82.70;;;;;;5108905;28;20028;-74
2022/05/25 11:36:48;;;;;;;2.90;1.00;;;18.90;82.60;;;;;;5108910;28;20486;-75
2022/05/25 11:39:38;;;;;;;3.67;1.00;;;19.90;79.90;;;;;;5109030;28;20478;-74
2022/05/25 11:42:33;;;;;;;4.47;1.15;;;19.70;78.30;;;;;;5122181;28;20096;-74
2022/05/25 11:45:23;;;;;;;8.15;1.88;;;19.00;79.10;;;;;;5090456;28;20035;-74
2022/05/25 11:48:30;;;;;;;2.88;0.93;;;18.50;81.60;;;;;;5109544;28;20081;-74
2022/05/25 11:51:17;;;;;;;4.10;1.15;;;18.40;81.60;;;;;;5107159;28;20016;-74
2022/05/25 11:54:09;;;;;;;6.70;1.13;;;18.10;82.40;;;;;;5107655;28;20376;-74
2022/05/25 11:56:43;;;;;;;4.93;0.82;;;18.10;83.80;;;;;;5112725;28;20048;-74
2022/05/25 11:59:39;;;;;;;4.15;0.90;;;18.10;82.40;;;;;;5106365;28;20012;-74
2022/05/25 12:02:20;;;;;;;4.82;1.13;;;18.00;83.80;;;;;;5108626;28;20386;-74
2022/05/25 12:05:10;;;;;;;9.10;1.00;;;18.20;84.80;;;;;;5107950;28;20020;-74
2022/05/25 12:07:50;;;;;;;5.55;1.15;;;18.40;83.10;;;;;;5107884;28;20012;-74
2022/05/25 12:10:31;;;;;;;4.78;1.42;;;18.30;83.40;;;;;;5108150;28;20095;-74
2022/05/25 12:13:12;;;;;;;4.38;0.90;;;18.30;83.60;;;;;;5110117;27;20036;-74
2022/05/25 12:15:59;;;;;;;6.03;0.90;;;19.50;83.10;;;;;;5111641;28;20450;-74
2022/05/25 12:18:28;;;;;;;3.97;1.20;;;20.30;78.90;;;;;;5107234;28;20263;-74
2022/05/25 12:21:04;;;;;;;3.83;1.00;;;20.70;77.60;;;;;;5108794;28;20035;-74
2022/05/25 12:23:36;;;;;;;3.65;0.90;;;20.60;77.70;;;;;;5109180;28;20028;-74
2022/05/25 12:26:17;;;;;;;7.05;0.75;;;20.60;75.10;;;;;;5094346;28;20020;-74
2022/05/25 12:28:46;;;;;;;6.27;1.30;;;20.40;75.80;;;;;;5093547;28;20056;-74
2022/05/25 12:31:19;;;;;;;5.22;1.30;;;19.70;76.30;;;;;;5087463;28;20024;-76
2022/05/25 12:33:46;;;;;;;4.95;1.20;;;19.40;78.10;;;;;;5090406;28;20498;-73
2022/05/25 12:36:14;;;;;;;8.50;1.58;;;20.00;76.50;;;;;;5093538;28;20368;-73
2022/05/25 12:38:40;;;;;;;4.78;1.15;;;20.10;77.70;;;;;;5094668;28;20657;-73
2022/05/25 12:41:32;;;;;;;3.22;0.93;;;19.80;76.20;;;;;;5087502;28;20021;-73
2022/05/25 12:44:00;;;;;;;3.27;0.90;;;19.90;77.40;;;;;;5102947;28;20028;-73
2022/05/25 12:49:44;;;;;;;3.72;0.90;;;19.70;77.00;;;;;;5101797;28;20055;-73
2022/05/25 12:52:28;;;;;;;3.38;0.90;;;20.00;76.70;;;;;;5105300;28;20479;-73
2022/05/25 12:55:05;;;;;;;4.47;0.82;;;20.10;75.80;;;;;;5112596;28;20020;-73
2022/05/25 12:57:57;;;;;;;5.28;1.52;;;19.80;77.00;;;;;;5115194;28;20027;-73
2022/05/25 13:00:40;;;;;;;4.55;1.00;;;19.90;76.80;;;;;;5115313;27;20016;-73
2022/05/25 13:03:33;;;;;;;4.07;0.90;;;19.70;76.20;;;;;;5115155;28;20059;-73
2022/05/25 13:06:01;;;;;;;3.13;0.70;;;20.40;75.60;;;;;;5106038;28;20357;-73
2022/05/25 13:08:45;;;;;;;6.50;1.02;;;20.60;74.70;;;;;;5074207;28;20392;-72
2022/05/25 13:11:40;;;;;;;4.63;0.77;;;21.10;74.80;;;;;;5074570;28;20032;-73
2022/05/25 13:14:08;;;;;;;4.55;1.00;;;20.70;71.00;;;;;;5094090;28;20052;-73
2022/05/25 13:16:40;;;;;;;5.70;1.10;;;20.20;73.10;;;;;;5094509;28;20468;-73
2022/05/25 13:19:21;;;;;;;4.50;0.70;;;19.90;74.90;;;;;;5094024;28;20079;-73
2022/05/25 13:21:53;;;;;;;4.78;0.82;;;19.70;76.50;;;;;;5092610;28;20103;-73
2022/05/25 13:24:41;;;;;;;4.28;0.95;;;19.50;77.00;;;;;;5092270;28;20034;-73
2022/05/25 13:27:15;;;;;;;4.00;0.82;;;19.30;77.40;;;;;;5103565;28;20027;-73
2022/05/25 13:30:14;;;;;;;6.60;0.77;;;19.00;77.50;;;;;;5101189;28;20035;-73
2022/05/25 13:32:52;;;;;;;3.33;1.10;;;18.90;77.90;;;;;;5091689;28;20484;-73
2022/05/25 13:35:20;;;;;;;3.97;1.00;;;19.00;77.10;;;;;;5086653;28;20024;-73
2022/05/25 13:37:52;;;;;;;3.50;1.05;;;19.20;77.80;;;;;;5093011;28;20016;-75
2022/05/25 13:40:24;;;;;;;3.78;1.02;;;19.30;78.20;;;;;;5087695;28;20032;-74
2022/05/25 13:42:50;;;;;;;7.23;1.17;;;19.30;77.90;;;;;;5112371;28;20020;-74
2022/05/25 13:45:26;;;;;;;3.30;1.02;;;19.20;78.30;;;;;;5108652;28;20110;-74
2022/05/25 13:47:57;;;;;;;2.95;1.00;;;19.30;77.80;;;;;;5094206;28;20114;-74
2022/05/25 13:50:36;;;;;;;2.40;1.00;;;19.30;77.70;;;;;;5093652;28;20027;-74
2022/05/25 13:53:06;;;;;;;3.90;0.90;;;19.50;77.40;;;;;;5092718;28;20127;-74
2022/05/25 13:55:35;;;;;;;4.95;1.42;;;19.70;77.80;;;;;;5093650;28;20028;-74
2022/05/25 13:58:07;;;;;;;20.65;1.65;;;19.80;78.20;;;;;;5092804;28;20035;-74
2022/05/25 14:00:36;;;;;;;5.03;1.27;;;19.60;78.70;;;;;;5094256;28;20052;-74
2022/05/25 14:03:05;;;;;;;8.60;1.20;;;19.40;80.10;;;;;;5096509;28;20070;-74
2022/05/25 14:05:39;;;;;;;5.00;1.23;;;19.10;78.20;;;;;;5106190;28;20024;-74
2022/05/25 14:08:18;;;;;;;6.63;1.05;;;19.30;78.50;;;;;;5108309;28;20089;-74
2022/05/25 14:10:58;;;;;;;6.07;0.85;;;19.30;79.10;;;;;;5106678;28;20039;-73
2022/05/25 14:13:29;;;;;;;4.85;1.30;;;19.80;80.30;;;;;;5089778;28;20044;-76
2022/05/25 14:15:55;;;;;;;5.60;1.20;;;20.20;77.80;;;;;;5111203;28;20406;-76
2022/05/25 14:18:21;;;;;;;4.65;0.90;;;20.20;76.70;;;;;;5077851;28;20035;-76
2022/05/25 14:20:47;;;;;;;4.43;0.90;;;20.40;77.00;;;;;;5093505;28;20103;-75
2022/05/25 14:23:13;;;;;;;2.90;1.02;;;20.30;74.40;;;;;;5084124;28;20100;-76
2022/05/25 14:25:41;;;;;;;2.17;0.70;;;20.20;72.40;;;;;;5073137;28;20475;-76
2022/05/25 14:28:06;;;;;;;4.82;1.15;;;20.10;74.20;;;;;;5099828;28;20028;-75
2022/05/25 14:30:35;;;;;;;3.45;0.90;;;20.00;74.20;;;;;;5090898;28;20036;-78
2022/05/25 14:33:08;;;;;;;4.68;1.08;;;20.20;75.50;;;;;;5102661;28;20069;-75
2022/05/25 14:35:37;;;;;;;2.90;1.02;;;20.20;75.20;;;;;;5096389;28;20026;-75
2022/05/25 14:38:06;;;;;;;4.68;1.23;;;20.30;74.40;;;;;;5098212;28;20502;-75
2022/05/25 14:40:43;;;;;;;9.80;1.25;;;20.30;74.40;;;;;;5086069;28;20027;-75
2022/05/25 14:43:09;;;;;;;5.80;1.38;;;20.30;74.00;;;;;;5089320;28;20024;-75
2022/05/25 14:45:35;;;;;;;3.60;0.98;;;20.30;75.50;;;;;;5104551;28;20438;-75
2022/05/25 14:48:00;;;;;;;4.75;1.00;;;19.90;75.40;;;;;;5091579;28;20424;-75
2022/05/25 14:50:56;;;;;;;6.63;1.00;;;19.80;74.80;;;;;;5104133;28;20032;-75
2022/05/25 14:53:22;;;;;;;3.17;0.82;;;20.10;75.80;;;;;;5090660;28;20032;-75
2022/05/25 14:55:47;;;;;;;3.80;1.10;;;20.40;72.80;;;;;;5082602;28;20016;-75
2022/05/25 14:58:22;;;;;;;6.05;1.17;;;20.90;72.30;;;;;;5082249;28;20070;-74
2022/05/25 15:00:58;;;;;;;5.90;1.05;;;21.30;69.20;;;;;;5092362;28;20049;-75
2022/05/25 15:03:37;;;;;;;3.85;0.85;;;21.20;69.20;;;;;;5091040;28;20108;-75
2022/05/25 15:06:11;;;;;;;3.10;1.17;;;21.00;70.10;;;;;;5079936;28;20016;-75
2022/05/25 15:08:40;;;;;;;6.05;1.20;;;21.20;70.10;;;;;;5085749;28;20502;-75
2022/05/25 15:11:28;;;;;;;3.60;0.90;;;21.50;70.00;;;;;;5110787;28;20081;-75
2022/05/25 15:20:12;;;;;;;2.85;0.95;;;21.20;69.90;;;;;;5098912;28;20060;-74
2022/05/25 15:22:52;;;;;;;3.33;0.90;;;21.10;70.00;;;;;;5085120;28;20024;-74
2022/05/25 15:25:32;;;;;;;3.90;1.00;;;20.80;70.50;;;;;;5079531;28;20071;-74
2022/05/25 15:28:14;;;;;;;3.33;0.80;;;20.40;70.80;;;;;;5079360;28;20055;-74
2022/05/25 15:30:51;;;;;;;4.53;1.08;;;20.30;71.10;;;;;;5090934;28;20058;-74
2022/05/25 15:33:20;;;;;;;8.23;1.40;;;20.40;70.20;;;;;;5100244;28;20158;-78
2022/05/25 15:35:50;;;;;;;6.15;0.88;;;20.40;70.00;;;;;;5095082;28;20371;-74
2022/05/25 15:38:25;;;;;;;3.53;1.00;;;20.30;70.50;;;;;;5087644;28;20020;-74